Time;durP1;ratioP1;P1;durP2;ratioP2;P2;SDS_P1;SDS_P2;PMS_P1;PMS_P2;Temp;Humidity;BMP_temperature;BMP_pressure;BME280_temperature;BME280_humidity;BME280_pressure;Samples;Min_cycle;Max_cycle;Signal;HPM_P1;HPM_P2
2023/02/03 00:00:30;;;;;;;0.00;0.00;;;;;;;-145.06;100.00;53857.97;10373693;28;20480;-77
2023/02/03 00:05:33;;;;;;;0.00;0.00;;;;;;;-145.06;100.00;53841.75;10372628;28;20096;-78
2023/02/03 00:10:35;;;;;;;0.00;0.00;;;;;;;-145.06;100.00;53862.00;10374177;28;20571;-78
2023/02/03 00:15:35;;;;;;;0.00;0.00;;;;;;;-145.06;100.00;53904.53;10375183;28;20030;-78
2023/02/03 00:20:36;;;;;;;0.00;0.00;;;;;;;-145.06;100.00;53839.72;10373891;28;20041;-78
2023/02/03 00:25:37;;;;;;;0.00;0.00;;;;;;;-145.06;100.00;53888.34;10374275;28;20030;-77
2023/02/03 00:30:37;;;;;;;0.00;0.00;;;;;;;-145.06;100.00;53821.50;10370104;28;20424;-77
2023/02/03 00:35:39;;;;;;;0.00;0.00;;;;;;;-145.06;100.00;53880.22;10374309;28;20022;-77
2023/02/03 00:40:39;;;;;;;0.00;0.00;;;;;;;-145.06;100.00;53843.78;10374115;28;20017;-78
2023/02/03 00:45:39;;;;;;;0.00;0.00;;;;;;;-145.06;100.00;53851.88;10372231;28;20100;-77
2023/02/03 00:50:39;;;;;;;0.00;0.00;;;;;;;-145.06;100.00;53880.22;10373575;28;20105;-78
2023/02/03 00:55:42;;;;;;;0.08;0.08;;;;;;;-145.06;100.00;53851.88;10374209;28;20157;-78
2023/02/03 01:00:42;;;;;;;0.00;0.00;;;;;;;-145.06;100.00;53868.09;10373894;28;20034;-78
2023/02/03 01:05:43;;;;;;;0.00;0.00;;;;;;;-145.06;100.00;53817.47;10375666;28;20056;-79
2023/02/03 01:10:43;;;;;;;0.00;0.00;;;;;;;-145.06;100.00;53847.84;10375110;28;20499;-79
2023/02/03 01:15:47;;;;;;;0.10;0.10;;;;;;;-145.06;100.00;53864.03;10373607;28;20104;-79
2023/02/03 01:20:47;;;;;;;0.00;0.00;;;;;;;-145.06;100.00;53827.59;10373206;28;20038;-78
2023/02/03 01:25:47;;;;;;;0.00;0.00;;;;;;;-145.06;100.00;53835.69;10373806;28;20053;-77
2023/02/03 01:30:48;;;;;;;0.00;0.00;;;;;;;-145.06;100.00;53886.31;10374814;28;20107;-78
2023/02/03 01:35:48;;;;;;;0.00;0.00;;;;;;;-145.06;100.00;53872.13;10374685;28;20344;-79
2023/02/03 01:40:48;;;;;;;0.00;0.00;;;;;;;-145.06;100.00;53839.72;10372645;28;20066;-77
2023/02/03 01:45:49;;;;;;;0.00;0.00;;;;;;;-145.06;100.00;53906.56;10374266;28;20052;-78
2023/02/03 01:50:49;;;;;;;0.00;0.00;;;;;;;-145.06;100.00;53853.91;10374591;28;20022;-79
2023/02/03 01:55:50;;;;;;;0.00;0.00;;;;;;;-145.06;100.00;53837.72;10374688;28;20768;-79
2023/02/03 02:00:51;;;;;;;0.00;0.00;;;;;;;-145.06;100.00;53849.84;10373870;28;20478;-78
2023/02/03 02:06:12;;;;;;;0.10;0.10;;;;;;;-145.06;100.00;53827.59;10374250;28;20084;-78
2023/02/03 02:11:13;;;;;;;0.00;0.00;;;;;;;-145.06;100.00;53884.28;10353922;28;20113;-78
2023/02/03 02:16:18;;;;;;;0.00;0.00;;;;;;;-145.06;100.00;53882.25;10343923;28;20508;-78
2023/02/03 02:21:49;;;;;;;0.10;0.10;;;;;;;-145.06;100.00;53849.84;10332866;28;20045;-78
2023/02/03 02:26:52;;;;;;;0.05;0.05;;;;;;;-145.06;100.00;53859.97;10371167;28;20117;-78
2023/02/03 02:32:07;;;;;;;0.00;0.00;;;;;;;-145.06;100.00;53890.38;10379645;28;20036;-79
2023/02/03 02:37:51;;;;;;;0.00;0.00;;;;;;;-145.06;100.00;53872.13;10379758;28;20064;-79
2023/02/03 02:43:11;;;;;;;0.00;0.00;;;;;;;-145.06;100.00;53880.22;10378875;28;20037;-78
2023/02/03 02:48:34;;;;;;;0.00;0.00;;;;;;;-145.06;100.00;53880.22;10380360;28;20401;-78
2023/02/03 02:53:39;;;;;;;0.00;0.00;;;;;;;-145.06;100.00;53809.34;10379779;28;20038;-78
2023/02/03 02:58:42;;;;;;;0.00;0.00;;;;;;;-145.06;100.00;53839.72;10380257;28;20038;-77
2023/02/03 03:03:44;;;;;;;0.10;0.10;;;;;;;-145.06;100.00;53876.19;10379955;28;20034;-77
2023/02/03 03:08:57;;;;;;;0.00;0.00;;;;;;;-145.06;100.00;53880.22;10379129;28;20060;-78
2023/02/03 03:13:58;;;;;;;0.00;0.00;;;;;;;-145.06;100.00;53868.09;10377772;28;20042;-78
2023/02/03 03:19:03;;;;;;;0.00;0.00;;;;;;;-145.06;100.00;53882.25;10379595;28;20034;-78
2023/02/03 03:24:09;;;;;;;0.00;0.00;;;;;;;-145.06;100.00;53884.28;10438614;22;20471;-80
2023/02/03 03:29:28;;;;;;;0.10;0.10;;;;;;;-145.06;100.00;53868.09;10429513;28;20048;-79
2023/02/03 03:34:29;;;;;;;0.00;0.00;;;;;;;-145.06;100.00;53833.66;10442937;28;20419;-80
2023/02/03 03:39:46;;;;;;;0.00;0.00;;;;;;;-145.06;100.00;53880.22;10428555;28;20068;-80
2023/02/03 03:44:55;;;;;;;0.00;0.00;;;;;;;-145.06;100.00;53833.66;10440588;28;20553;-79
2023/02/03 03:49:59;;;;;;;0.00;0.00;;;;;;;-145.06;100.00;53827.59;10447060;28;20037;-80
2023/02/03 03:55:02;;;;;;;0.00;0.00;;;;;;;-145.06;100.00;53847.84;10433867;28;20055;-80
2023/02/03 04:00:06;;;;;;;0.10;0.10;;;;;;;-145.06;100.00;53862.00;10432122;28;20396;-80
2023/02/03 04:05:09;;;;;;;0.00;0.00;;;;;;;-145.06;100.00;53870.09;10418043;28;20034;-80
2023/02/03 04:10:29;;;;;;;0.00;0.00;;;;;;;-145.06;100.00;53868.09;10423455;28;20387;-79
2023/02/03 04:15:32;;;;;;;0.05;0.05;;;;;;;-145.06;100.00;53827.59;10429589;28;20029;-79
2023/02/03 04:20:33;;;;;;;0.00;0.00;;;;;;;-145.06;100.00;53843.78;10433763;28;20503;-80
2023/02/03 04:25:33;;;;;;;0.10;0.10;;;;;;;-145.06;100.00;53851.88;10418820;28;20037;-78
2023/02/03 04:30:33;;;;;;;0.00;0.00;;;;;;;-145.06;100.00;53868.09;10458434;28;20029;-78
2023/02/03 04:35:34;;;;;;;0.00;0.00;;;;;;;-145.06;100.00;53851.88;10434394;28;20351;-79
2023/02/03 04:40:34;;;;;;;0.00;0.00;;;;;;;-145.06;100.00;53870.09;10429779;28;20120;-79
2023/02/03 04:45:34;;;;;;;0.00;0.00;;;;;;;-145.06;100.00;53868.09;10450239;28;20036;-79
2023/02/03 04:50:35;;;;;;;0.00;0.00;;;;;;;-145.06;100.00;53896.44;10428076;28;20027;-79
2023/02/03 04:55:35;;;;;;;0.00;0.00;;;;;;;-145.06;100.00;53855.94;10419598;28;20025;-79
2023/02/03 05:00:35;;;;;;;0.00;0.00;;;;;;;-145.06;100.00;53823.53;10410483;28;20030;-80
2023/02/03 05:05:36;;;;;;;0.00;0.00;;;;;;;-145.06;100.00;53878.22;10439170;28;20738;-80
2023/02/03 05:10:36;;;;;;;0.00;0.00;;;;;;;-145.06;100.00;53870.09;10410515;28;20037;-79
2023/02/03 05:15:36;;;;;;;0.00;0.00;;;;;;;-145.06;100.00;53853.91;10414577;28;20264;-80
2023/02/03 05:20:37;;;;;;;0.00;0.00;;;;;;;-145.06;100.00;53855.94;10417727;28;20030;-77
2023/02/03 05:25:37;;;;;;;0.10;0.10;;;;;;;-145.06;100.00;53855.94;10438676;28;20751;-80
2023/02/03 05:30:37;;;;;;;0.00;0.00;;;;;;;-145.06;100.00;53872.13;10434794;28;20032;-79
2023/02/03 05:35:38;;;;;;;0.00;0.00;;;;;;;-145.06;100.00;53892.38;10439170;28;20033;-78
2023/02/03 05:46:00;;;;;;;0.00;0.00;;;;;;;-145.06;100.00;53847.84;10436106;28;20396;-77
2023/02/03 05:51:01;;;;;;;0.10;0.10;;;;;;;-145.06;100.00;53872.13;10423506;28;20029;-79
2023/02/03 05:56:01;;;;;;;0.10;0.10;;;;;;;-145.06;100.00;53880.22;10437191;28;20452;-79
2023/02/03 06:01:02;;;;;;;0.00;0.00;;;;;;;-145.06;100.00;53815.44;10436961;28;20030;-77
2023/02/03 06:06:02;;;;;;;0.00;0.00;;;;;;;-145.06;100.00;53829.59;10425766;28;20256;-78
2023/02/03 06:11:02;;;;;;;0.10;0.10;;;;;;;-145.06;100.00;53892.38;10442295;28;20259;-79
2023/02/03 06:16:03;;;;;;;0.00;0.00;;;;;;;-145.06;100.00;53862.00;10454106;28;20128;-79
2023/02/03 06:21:04;;;;;;;0.00;0.00;;;;;;;-145.06;100.00;53886.31;10425033;28;20033;-79
2023/02/03 06:26:04;;;;;;;0.00;0.00;;;;;;;-145.06;100.00;53888.34;10448387;28;20029;-79
2023/02/03 06:31:05;;;;;;;0.00;0.00;;;;;;;-145.06;100.00;53922.75;10432128;28;20759;-79
2023/02/03 06:36:05;;;;;;;0.00;0.00;;;;;;;-145.06;100.00;53894.41;10445222;28;20045;-79
2023/02/03 06:41:06;;;;;;;0.00;0.00;;;;;;;-145.06;100.00;53864.03;10424341;28;20036;-79
2023/02/03 06:46:06;;;;;;;0.00;0.00;;;;;;;-145.06;100.00;53888.34;10430680;28;20051;-79
2023/02/03 06:51:06;;;;;;;0.00;0.00;;;;;;;-145.06;100.00;53864.03;10425447;28;20087;-80
2023/02/03 06:56:06;;;;;;;0.00;0.00;;;;;;;-145.06;100.00;53874.16;10426264;28;20039;-80
2023/02/03 07:01:07;;;;;;;0.00;0.00;;;;;;;-145.06;100.00;53880.22;10433945;28;20283;-79
2023/02/03 07:06:07;;;;;;;0.00;0.00;;;;;;;-145.06;100.00;53894.41;10447657;28;20052;-80
2023/02/03 07:11:08;;;;;;;0.00;0.00;;;;;;;-145.06;100.00;53878.22;10455902;28;20033;-79
2023/02/03 07:16:08;;;;;;;0.00;0.00;;;;;;;-145.06;100.00;53882.25;10445203;28;20129;-79
2023/02/03 07:21:09;;;;;;;0.03;0.03;;;;;;;-145.06;100.00;53894.41;10445209;28;20033;-77
2023/02/03 07:26:10;;;;;;;0.10;0.10;;;;;;;-145.06;100.00;53890.38;10423609;28;20036;-79
2023/02/03 07:31:10;;;;;;;0.00;0.00;;;;;;;-145.06;100.00;53868.09;10449191;28;20071;-79
2023/02/03 07:36:10;;;;;;;0.00;0.00;;;;;;;-145.06;100.00;53864.03;10434072;28;20029;-79
2023/02/03 07:41:11;;;;;;;0.00;0.00;;;;;;;-145.06;100.00;53880.22;10420886;28;20631;-80
2023/02/03 07:46:11;;;;;;;0.00;0.00;;;;;;;-145.06;100.00;53918.72;10425589;28;20051;-80
2023/02/03 07:51:12;;;;;;;0.03;0.03;;;;;;;-145.06;100.00;53864.03;10407788;28;20021;-80
2023/02/03 07:56:12;;;;;;;0.00;0.00;;;;;;;-145.06;100.00;53878.22;10422725;28;20495;-80
2023/02/03 08:01:15;;;;;;;0.00;0.00;;;;;;;-145.06;100.00;53880.22;10438025;28;20060;-80
2023/02/03 08:06:15;;;;;;;0.00;0.00;;;;;;;-145.06;100.00;53837.72;10427568;28;20287;-78
2023/02/03 08:11:16;;;;;;;0.00;0.00;;;;;;;-145.06;100.00;53855.94;10422206;28;20055;-77
2023/02/03 08:16:16;;;;;;;0.00;0.00;;;;;;;-145.06;100.00;53841.75;10438469;28;20119;-77
2023/02/03 08:21:16;;;;;;;0.10;0.10;;;;;;;-145.06;100.00;53880.22;10432956;28;20284;-78
2023/02/03 08:26:16;;;;;;;0.00;0.00;;;;;;;-145.06;100.00;53868.09;10449142;28;20042;-78
2023/02/03 08:31:17;;;;;;;0.00;0.00;;;;;;;-145.06;100.00;53839.72;10439261;28;20029;-78
2023/02/03 08:36:17;;;;;;;0.00;0.00;;;;;;;-145.06;100.00;53847.84;10418760;28;20029;-76
2023/02/03 08:41:18;;;;;;;0.10;0.10;;;;;;;-145.06;100.00;53872.13;10416712;28;20065;-78
2023/02/03 08:46:19;;;;;;;0.00;0.00;;;;;;;-145.06;100.00;53878.22;10439045;28;20059;-79
2023/02/03 08:51:19;;;;;;;0.10;0.10;;;;;;;-145.06;100.00;53862.00;10443050;28;20450;-79
2023/02/03 08:56:19;;;;;;;0.00;0.00;;;;;;;-145.06;100.00;53855.94;10446605;28;20314;-80
2023/02/03 09:01:20;;;;;;;0.00;0.00;;;;;;;-145.06;100.00;53827.59;10412890;28;20291;-79
2023/02/03 09:06:21;;;;;;;0.00;0.00;;;;;;;-145.06;100.00;53845.81;10412820;28;20055;-80
2023/02/03 09:11:21;;;;;;;0.00;0.00;;;;;;;-145.06;100.00;53845.81;10438642;28;20025;-79
2023/02/03 09:16:24;;;;;;;0.00;0.00;;;;;;;-145.06;100.00;53829.59;10413778;28;20434;-77
2023/02/03 09:21:24;;;;;;;0.10;0.10;;;;;;;-145.06;100.00;53825.56;10434178;23;20056;-78
2023/02/03 09:26:24;;;;;;;0.10;0.10;;;;;;;-145.06;100.00;53839.72;10354654;28;20040;-76
2023/02/03 09:31:25;;;;;;;0.00;0.00;;;;;;;-145.06;100.00;53827.59;10352902;28;20029;-79
2023/02/03 09:36:25;;;;;;;0.00;0.00;;;;;;;-145.06;100.00;53864.03;10359187;28;20280;-79
2023/02/03 09:41:51;;;;;;;0.00;0.00;;;;;;;-145.06;100.00;53864.03;10347634;28;20392;-76
2023/02/03 09:47:17;;;;;;;0.00;0.00;;;;;;;-145.06;100.00;53862.00;10341607;28;20027;-77
2023/02/03 09:52:21;;;;;;;0.00;0.00;;;;;;;-145.06;100.00;53847.84;10341820;28;20039;-77
2023/02/03 09:57:25;;;;;;;0.00;0.00;;;;;;;-145.06;100.00;53799.22;10347783;28;20030;-77
2023/02/03 10:02:53;;;;;;;0.00;0.00;;;;;;;-145.06;100.00;53801.25;10351015;28;20043;-77
2023/02/03 10:07:56;;;;;;;0.00;0.00;;;;;;;-145.06;100.00;53817.47;10351944;28;20030;-77
2023/02/03 10:13:11;;;;;;;0.10;0.10;;;;;;;-145.06;100.00;53847.84;10350413;28;20456;-77
2023/02/03 10:18:16;;;;;;;0.00;0.00;;;;;;;-145.06;100.00;53821.50;10342775;28;20034;-77
2023/02/03 10:23:32;;;;;;;0.10;0.10;;;;;;;-145.06;100.00;53831.63;10345612;28;20030;-77
2023/02/03 10:28:39;;;;;;;0.10;0.10;;;;;;;-145.06;100.00;53821.50;10355725;28;20069;-78
2023/02/03 10:33:39;;;;;;;0.05;0.05;;;;;;;-145.06;100.00;53835.69;10358322;28;20160;-77
2023/02/03 10:38:58;;;;;;;0.00;0.00;;;;;;;-145.06;100.00;53851.88;10370634;28;20049;-77
2023/02/03 10:44:03;;;;;;;0.00;0.00;;;;;;;-145.06;100.00;53795.19;10355842;28;20172;-77
2023/02/03 10:49:04;;;;;;;0.10;0.10;;;;;;;-145.06;100.00;53819.47;10357444;28;20034;-78
2023/02/03 10:54:26;;;;;;;0.10;0.10;;;;;;;-145.06;100.00;53843.78;10366697;28;20026;-77
2023/02/03 10:59:30;;;;;;;0.00;0.00;;;;;;;-145.06;100.00;53841.75;10366471;28;20626;-77
2023/02/03 11:04:32;;;;;;;0.08;0.08;;;;;;;-145.06;100.00;53833.66;10367993;28;20425;-77
2023/02/03 11:09:36;;;;;;;0.00;0.00;;;;;;;-145.06;100.00;53819.47;10366892;28;20092;-77
2023/02/03 11:14:39;;;;;;;0.10;0.10;;;;;;;-145.06;100.00;53839.72;10354982;28;20025;-77
2023/02/03 11:19:43;;;;;;;0.10;0.10;;;;;;;-145.06;100.00;53827.59;10360434;28;20025;-77
2023/02/03 11:24:44;;;;;;;0.10;0.10;;;;;;;-145.06;100.00;53791.13;10350904;28;20109;-78
2023/02/03 11:29:48;;;;;;;0.00;0.00;;;;;;;-145.06;100.00;53805.31;10367033;28;20049;-78
2023/02/03 11:35:01;;;;;;;0.10;0.10;;;;;;;-145.06;100.00;53801.25;10359469;28;20397;-78
2023/02/03 11:40:09;;;;;;;0.10;0.10;;;;;;;-145.06;100.00;53831.63;10370385;28;20286;-78
2023/02/03 11:45:26;;;;;;;0.10;0.10;;;;;;;-145.06;100.00;53819.47;10380971;28;20032;-78
2023/02/03 11:50:34;;;;;;;0.00;0.00;;;;;;;-145.06;100.00;53821.50;10359986;28;20043;-78
2023/02/03 11:56:05;;;;;;;0.10;0.10;;;;;;;-145.06;100.00;53857.97;10370847;28;20393;-78
2023/02/03 12:01:18;;;;;;;0.00;0.00;;;;;;;-145.06;100.00;53835.69;10375757;28;20026;-78
2023/02/03 12:06:53;;;;;;;0.10;0.10;;;;;;;-145.06;100.00;53803.28;10354913;28;20061;-79
2023/02/03 12:12:12;;;;;;;0.00;0.00;;;;;;;-145.06;100.00;53829.59;10291310;28;20041;-79
2023/02/03 12:17:37;;;;;;;0.00;0.00;;;;;;;-145.06;100.00;53776.94;10361266;28;20056;-79
2023/02/03 12:22:54;;;;;;;0.10;0.10;;;;;;;-145.06;100.00;53823.53;10373455;28;20032;-79
2023/02/03 12:28:16;;;;;;;0.10;0.10;;;;;;;-145.06;100.00;53835.69;10386364;28;20603;-79
2023/02/03 12:33:21;;;;;;;0.10;0.10;;;;;;;-145.06;100.00;53837.72;10372304;28;20026;-79
2023/02/03 12:38:25;;;;;;;0.00;0.00;;;;;;;-145.06;100.00;53831.63;10385508;28;20034;-78
2023/02/03 12:43:39;;;;;;;0.00;0.00;;;;;;;-145.06;100.00;53874.16;10381023;28;20401;-78
2023/02/03 12:49:09;;;;;;;0.10;0.10;;;;;;;-145.06;100.00;53825.56;10357105;28;20037;-78
2023/02/03 12:54:28;;;;;;;0.00;0.00;;;;;;;-145.06;100.00;53823.53;10373911;28;20453;-78
2023/02/03 12:59:31;;;;;;;0.00;0.00;;;;;;;-145.06;100.00;53821.50;10358597;28;20046;-79
2023/02/03 13:04:42;;;;;;;0.10;0.10;;;;;;;-145.06;100.00;53813.41;10368322;28;20034;-78
2023/02/03 13:09:55;;;;;;;0.10;0.10;;;;;;;-145.06;100.00;53799.22;10367972;28;20116;-77
2023/02/03 13:15:17;;;;;;;0.10;0.10;;;;;;;-145.06;100.00;53833.66;10374666;28;20017;-78
2023/02/03 13:20:29;;;;;;;0.00;0.00;;;;;;;-145.06;100.00;53809.34;10348141;28;20072;-78
2023/02/03 13:26:14;;;;;;;0.00;0.00;;;;;;;-145.06;100.00;53868.09;10378776;28;20037;-78
2023/02/03 13:31:42;;;;;;;0.10;0.10;;;;;;;-145.06;100.00;53819.47;10378138;28;20153;-78
2023/02/03 13:36:43;;;;;;;0.03;0.03;;;;;;;-145.06;100.00;53827.59;10374562;28;20065;-78
2023/02/03 13:41:55;;;;;;;0.00;0.00;;;;;;;-145.06;100.00;53843.78;10383115;28;20022;-78
2023/02/03 13:46:57;;;;;;;0.00;0.00;;;;;;;-145.06;100.00;53847.84;10381072;28;20093;-78
2023/02/03 13:51:58;;;;;;;0.00;0.00;;;;;;;-145.06;100.00;53823.53;10372584;28;20130;-78
2023/02/03 13:57:04;;;;;;;0.00;0.00;;;;;;;-145.06;100.00;53817.47;10384336;28;20154;-78
2023/02/03 14:02:20;;;;;;;0.10;0.10;;;;;;;-145.06;100.00;53833.66;10365568;28;20022;-77
2023/02/03 14:07:23;;;;;;;0.00;0.00;;;;;;;-145.06;100.00;53815.44;10338152;28;20046;-78
2023/02/03 14:12:32;;;;;;;0.00;0.00;;;;;;;-145.06;100.00;53833.66;10355025;28;20058;-77
2023/02/03 14:17:32;;;;;;;0.00;0.00;;;;;;;-145.06;100.00;53813.41;10343569;28;20130;-78
2023/02/03 14:22:33;;;;;;;0.10;0.10;;;;;;;-145.06;100.00;53831.63;10351766;28;20117;-78
2023/02/03 14:27:33;;;;;;;0.00;0.00;;;;;;;-145.06;100.00;53803.28;10379119;28;20348;-78
2023/02/03 14:32:49;;;;;;;0.00;0.00;;;;;;;-145.06;100.00;53823.53;10372775;28;20045;-77
2023/02/03 14:37:56;;;;;;;0.00;0.00;;;;;;;-145.06;100.00;53817.47;10371015;28;20278;-78
2023/02/03 14:43:29;;;;;;;0.00;0.00;;;;;;;-145.06;100.00;53876.19;10356591;28;20026;-78
2023/02/03 14:48:57;;;;;;;0.08;0.08;;;;;;;-145.06;100.00;53819.47;10364116;28;20065;-77
2023/02/03 14:54:15;;;;;;;0.08;0.08;;;;;;;-145.06;100.00;53851.88;10369252;28;20065;-77
2023/02/03 14:59:17;;;;;;;0.00;0.00;;;;;;;-145.06;100.00;53831.63;10366037;28;20038;-77
2023/02/03 15:04:17;;;;;;;0.00;0.00;;;;;;;-145.06;100.00;53843.78;10363648;28;20116;-78
2023/02/03 15:09:33;;;;;;;0.08;0.08;;;;;;;-145.06;100.00;53847.84;10380017;28;20120;-78
2023/02/03 15:14:33;;;;;;;0.10;0.10;;;;;;;-145.06;100.00;53807.31;10367065;28;20034;-78
2023/02/03 15:19:38;;;;;;;0.00;0.00;;;;;;;-145.06;100.00;53849.84;10363535;28;20060;-78
2023/02/03 15:24:38;;;;;;;0.00;0.00;;;;;;;-145.06;100.00;53876.19;10411785;23;20403;-82
2023/02/03 15:29:39;;;;;;;0.00;0.00;;;;;;;-145.06;100.00;53845.81;10401640;28;20065;-81
2023/02/03 15:34:46;;;;;;;0.00;0.00;;;;;;;-145.06;100.00;53837.72;10402437;28;20253;-82
2023/02/03 15:40:07;;;;;;;0.00;0.00;;;;;;;-145.06;100.00;53815.44;10398513;28;20122;-82
2023/02/03 15:45:26;;;;;;;0.10;0.10;;;;;;;-145.06;100.00;53823.53;10412196;28;20030;-82
2023/02/03 15:50:29;;;;;;;0.00;0.00;;;;;;;-145.06;100.00;53847.84;10408437;28;20494;-82
2023/02/03 15:55:40;;;;;;;0.10;0.10;;;;;;;-145.06;100.00;53864.03;10407305;28;20067;-82
2023/02/03 16:00:41;;;;;;;0.10;0.10;;;;;;;-145.06;100.00;53821.50;10393604;28;20512;-82
2023/02/03 16:05:47;;;;;;;0.00;0.00;;;;;;;-145.06;100.00;53813.41;10392634;28;20265;-82
2023/02/03 16:10:47;;;;;;;0.00;0.00;;;;;;;-145.06;100.00;53823.53;10402213;28;20136;-82
2023/02/03 16:16:12;;;;;;;0.00;0.00;;;;;;;-145.06;100.00;53831.63;10398455;28;20457;-81
2023/02/03 16:21:28;;;;;;;0.00;0.00;;;;;;;-145.06;100.00;53851.88;10402236;28;20038;-82
2023/02/03 16:26:30;;;;;;;0.10;0.10;;;;;;;-145.06;100.00;53841.75;10397882;28;20424;-82
2023/02/03 16:53:05;;;;;;;0.00;0.00;;;;;;;-145.06;100.00;53845.81;10408598;28;20018;-82
2023/02/03 16:58:05;;;;;;;0.10;0.10;;;;;;;-145.06;100.00;53827.59;10390450;28;20039;-81
2023/02/03 17:03:06;;;;;;;0.00;0.00;;;;;;;-145.06;100.00;53845.81;10393229;28;20026;-80
2023/02/03 17:08:07;;;;;;;0.00;0.00;;;;;;;-145.06;100.00;53817.47;10399681;28;20084;-82
2023/02/03 17:13:08;;;;;;;0.10;0.10;;;;;;;-145.06;100.00;53795.19;10386656;28;20072;-83
2023/02/03 17:18:08;;;;;;;0.00;0.00;;;;;;;-145.06;100.00;53813.41;10402316;28;20049;-82
2023/02/03 17:23:09;;;;;;;0.00;0.00;;;;;;;-145.06;100.00;53839.72;10395014;28;20546;-82
2023/02/03 17:28:12;;;;;;;0.10;0.10;;;;;;;-145.06;100.00;53837.72;10400770;28;20026;-80
2023/02/03 17:33:12;;;;;;;0.25;0.25;;;;;;;-145.06;100.00;53866.06;10400278;28;20114;-82
2023/02/03 17:38:15;;;;;;;0.00;0.00;;;;;;;-145.06;100.00;53837.72;10416435;28;20527;-81
2023/02/03 17:43:16;;;;;;;0.00;0.00;;;;;;;-145.06;100.00;53866.06;10416419;28;20029;-81
2023/02/03 17:48:16;;;;;;;0.00;0.00;;;;;;;-145.06;100.00;53837.72;10417373;28;20029;-81
2023/02/03 17:53:17;;;;;;;0.10;0.10;;;;;;;-145.06;100.00;53823.53;10416136;28;20030;-82
2023/02/03 17:58:17;;;;;;;0.00;0.00;;;;;;;-145.06;100.00;53839.72;10417027;28;20519;-81
2023/02/03 18:03:17;;;;;;;0.00;0.00;;;;;;;-145.06;100.00;53859.97;10414318;28;20586;-80
2023/02/03 18:08:17;;;;;;;0.00;0.00;;;;;;;-145.06;100.00;53855.94;10373505;28;20037;-81
2023/02/03 18:13:22;;;;;;;0.00;0.00;;;;;;;-145.06;100.00;53829.59;10370056;28;20305;-82
2023/02/03 18:18:24;;;;;;;0.00;0.00;;;;;;;-145.06;100.00;53868.09;10390385;28;20036;-82
2023/02/03 18:23:24;;;;;;;0.00;0.00;;;;;;;-145.06;100.00;53849.84;10409955;28;20037;-81
2023/02/03 18:28:26;;;;;;;0.00;0.00;;;;;;;-145.06;100.00;53857.97;10397956;28;20472;-80
2023/02/03 18:33:27;;;;;;;0.00;0.00;;;;;;;-145.06;100.00;53811.38;10395809;28;20052;-82
2023/02/03 18:38:31;;;;;;;0.10;0.10;;;;;;;-145.06;100.00;53825.56;10396818;28;20378;-81
2023/02/03 18:43:32;;;;;;;0.00;0.00;;;;;;;-145.06;100.00;53843.78;10392960;28;20504;-82
2023/02/03 18:48:33;;;;;;;0.00;0.00;;;;;;;-145.06;100.00;53872.13;10370290;28;20050;-81
2023/02/03 18:53:33;;;;;;;0.00;0.00;;;;;;;-145.06;100.00;53898.47;10376904;28;20024;-81
2023/02/03 18:58:35;;;;;;;0.00;0.00;;;;;;;-145.06;100.00;53886.31;10397252;28;20030;-82
2023/02/03 19:03:35;;;;;;;0.00;0.00;;;;;;;-145.06;100.00;53880.22;10391495;28;20031;-80
2023/02/03 19:08:35;;;;;;;0.00;0.00;;;;;;;-145.06;100.00;53827.59;10383058;28;20044;-80
2023/02/03 19:13:36;;;;;;;0.00;0.00;;;;;;;-145.06;100.00;53866.06;10373878;28;20033;-82
2023/02/03 19:18:37;;;;;;;0.00;0.00;;;;;;;-145.06;100.00;53857.97;10384322;28;20029;-82
2023/02/03 19:23:39;;;;;;;0.00;0.00;;;;;;;-145.06;100.00;53847.84;10402785;28;20132;-82
2023/02/03 19:28:40;;;;;;;0.00;0.00;;;;;;;-145.06;100.00;53855.94;10407550;28;20041;-80
2023/02/03 19:33:40;;;;;;;0.00;0.00;;;;;;;-145.06;100.00;53807.31;10389989;28;20030;-82
2023/02/03 19:38:41;;;;;;;0.00;0.00;;;;;;;-145.06;100.00;53888.34;10410653;28;20037;-82
2023/02/03 19:43:41;;;;;;;0.00;0.00;;;;;;;-145.06;100.00;53872.13;10410680;28;20026;-81
2023/02/03 19:48:41;;;;;;;0.00;0.00;;;;;;;-145.06;100.00;53876.19;10399102;28;20037;-81
2023/02/03 19:53:42;;;;;;;0.00;0.00;;;;;;;-145.06;100.00;53843.78;10408277;28;20034;-82
2023/02/03 19:58:44;;;;;;;0.00;0.00;;;;;;;-145.06;100.00;53886.31;10374637;28;20030;-82
2023/02/03 20:03:45;;;;;;;0.00;0.00;;;;;;;-145.06;100.00;53847.84;10393366;28;20112;-81
2023/02/03 20:08:45;;;;;;;0.00;0.00;;;;;;;-145.06;100.00;53857.97;10382386;28;20137;-81
2023/02/03 20:13:45;;;;;;;0.00;0.00;;;;;;;-145.06;100.00;53847.84;10378603;28;20311;-83
2023/02/03 20:18:46;;;;;;;0.00;0.00;;;;;;;-145.06;100.00;53843.78;10406753;28;20257;-82
2023/02/03 20:23:46;;;;;;;0.00;0.00;;;;;;;-145.06;100.00;53831.63;10374484;28;20026;-81
2023/02/03 20:28:48;;;;;;;0.00;0.00;;;;;;;-145.06;100.00;53851.88;10371329;28;20042;-82
2023/02/03 20:33:48;;;;;;;0.00;0.00;;;;;;;-145.06;100.00;53845.81;10385584;28;20021;-82
2023/02/03 20:38:48;;;;;;;0.00;0.00;;;;;;;-145.06;100.00;53870.09;10383915;28;20025;-82
2023/02/03 20:43:49;;;;;;;0.00;0.00;;;;;;;-145.06;100.00;53866.06;10396675;28;20029;-83
2023/02/03 20:48:49;;;;;;;0.00;0.00;;;;;;;-145.06;100.00;53847.84;10372738;28;20788;-80
2023/02/03 20:53:51;;;;;;;0.00;0.00;;;;;;;-145.06;100.00;53839.72;10371572;28;20022;-81
2023/02/03 20:58:51;;;;;;;0.00;0.00;;;;;;;-145.06;100.00;53855.94;10381922;28;20026;-81
2023/02/03 21:09:17;;;;;;;0.00;0.00;;;;;;;-145.06;100.00;53870.09;10385312;28;20033;-82
2023/02/03 21:14:31;;;;;;;0.00;0.00;;;;;;;-145.06;100.00;53827.59;10381518;28;20026;-82
2023/02/03 21:19:32;;;;;;;0.00;0.00;;;;;;;-145.06;100.00;53849.84;10387977;28;20037;-81
2023/02/03 21:24:35;;;;;;;0.00;0.00;;;;;;;-145.06;100.00;53855.94;10407418;23;20050;-78
2023/02/03 21:29:38;;;;;;;0.00;0.00;;;;;;;-145.06;100.00;53880.22;10375832;28;20058;-77
2023/02/03 21:34:42;;;;;;;0.00;0.00;;;;;;;-145.06;100.00;53870.09;10376396;28;20099;-77
2023/02/03 21:39:42;;;;;;;0.00;0.00;;;;;;;-145.06;100.00;53862.00;10377418;28;20037;-77
2023/02/03 21:44:43;;;;;;;0.00;0.00;;;;;;;-145.06;100.00;53855.94;10376687;28;20207;-77
2023/02/03 21:49:43;;;;;;;0.00;0.00;;;;;;;-145.06;100.00;53849.84;10375425;28;20034;-77
2023/02/03 21:54:43;;;;;;;0.00;0.00;;;;;;;-145.06;100.00;53876.19;10375375;28;20037;-77
2023/02/03 21:59:48;;;;;;;0.00;0.00;;;;;;;-145.06;100.00;53902.50;10375209;28;20404;-76
2023/02/03 22:04:48;;;;;;;0.00;0.00;;;;;;;-145.06;100.00;53835.69;10367731;28;20394;-76
2023/02/03 22:09:50;;;;;;;0.00;0.00;;;;;;;-145.06;100.00;53868.09;10371555;28;20026;-77
2023/02/03 22:14:50;;;;;;;0.00;0.00;;;;;;;-145.06;100.00;53874.16;10371970;28;20034;-77
2023/02/03 22:19:51;;;;;;;0.00;0.00;;;;;;;-145.06;100.00;53841.75;10373952;28;20026;-77
2023/02/03 22:24:51;;;;;;;0.00;0.00;;;;;;;-145.06;100.00;53888.34;10372181;28;20462;-77
2023/02/03 22:29:55;;;;;;;0.00;0.00;;;;;;;-145.06;100.00;53833.66;10377570;28;20452;-78
2023/02/03 22:34:55;;;;;;;0.00;0.00;;;;;;;-145.06;100.00;53851.88;10378181;28;20132;-78
2023/02/03 22:39:55;;;;;;;0.00;0.00;;;;;;;-145.06;100.00;53868.09;10371117;28;20105;-78
2023/02/03 22:49:58;;;;;;;0.00;0.00;;;;;;;-145.06;100.00;53853.91;10390899;28;20076;-80
2023/02/03 22:54:59;;;;;;;0.00;0.00;;;;;;;-145.06;100.00;53882.25;10372304;28;20032;-80
2023/02/03 23:00:01;;;;;;;0.00;0.00;;;;;;;-145.06;100.00;53823.53;10399879;28;20045;-80
2023/02/03 23:05:01;;;;;;;0.00;0.00;;;;;;;-145.06;100.00;53845.81;10386025;28;20030;-81
2023/02/03 23:10:03;;;;;;;0.00;0.00;;;;;;;-145.06;100.00;53864.03;10393970;28;20049;-79
2023/02/03 23:15:04;;;;;;;0.00;0.00;;;;;;;-145.06;100.00;53857.97;10379491;28;20033;-81
2023/02/03 23:20:08;;;;;;;0.00;0.00;;;;;;;-145.06;100.00;53847.84;10389781;28;20060;-80
2023/02/03 23:25:09;;;;;;;0.00;0.00;;;;;;;-145.06;100.00;53862.00;10398215;28;20249;-80